sensor_id;sensor_type;location;lat;lon;timestamp;temperature;humidity
24207;DHT22;12351;52.284;9.160;2023-06-24T00:00:19;17.60;99.90
24207;DHT22;12351;52.284;9.160;2023-06-24T00:03:07;17.60;99.90
24207;DHT22;12351;52.284;9.160;2023-06-24T00:05:54;17.50;99.90
24207;DHT22;12351;52.284;9.160;2023-06-24T00:08:43;17.50;99.90
24207;DHT22;12351;52.284;9.160;2023-06-24T00:11:31;17.50;99.90
24207;DHT22;12351;52.284;9.160;2023-06-24T00:14:18;17.40;99.90
24207;DHT22;12351;52.284;9.160;2023-06-24T00:17:07;17.50;99.90
24207;DHT22;12351;52.284;9.160;2023-06-24T00:19:54;17.40;99.90
24207;DHT22;12351;52.284;9.160;2023-06-24T00:22:41;17.40;99.90
24207;DHT22;12351;52.284;9.160;2023-06-24T00:25:30;17.40;99.90
24207;DHT22;12351;52.284;9.160;2023-06-24T00:28:17;17.30;99.90
24207;DHT22;12351;52.284;9.160;2023-06-24T00:31:05;17.30;99.90
24207;DHT22;12351;52.284;9.160;2023-06-24T00:33:52;17.20;99.90
24207;DHT22;12351;52.284;9.160;2023-06-24T00:36:39;17.20;99.90
24207;DHT22;12351;52.284;9.160;2023-06-24T00:39:27;17.10;99.90
24207;DHT22;12351;52.284;9.160;2023-06-24T00:42:13;17.10;99.90
24207;DHT22;12351;52.284;9.160;2023-06-24T00:45:02;17.10;99.90
24207;DHT22;12351;52.284;9.160;2023-06-24T00:47:50;16.90;1.00
24207;DHT22;12351;52.284;9.160;2023-06-24T00:50:38;16.80;99.90
24207;DHT22;12351;52.284;9.160;2023-06-24T00:53:27;16.70;1.00
24207;DHT22;12351;52.284;9.160;2023-06-24T00:56:16;16.60;1.00
24207;DHT22;12351;52.284;9.160;2023-06-24T00:59:06;16.50;1.00
24207;DHT22;12351;52.284;9.160;2023-06-24T01:01:54;16.40;99.90
24207;DHT22;12351;52.284;9.160;2023-06-24T01:04:41;16.30;1.00
24207;DHT22;12351;52.284;9.160;2023-06-24T01:07:29;16.20;10.30
24207;DHT22;12351;52.284;9.160;2023-06-24T01:10:18;16.20;99.90
24207;DHT22;12351;52.284;9.160;2023-06-24T01:13:06;16.10;99.90
24207;DHT22;12351;52.284;9.160;2023-06-24T01:15:53;16.10;99.90
24207;DHT22;12351;52.284;9.160;2023-06-24T01:18:44;16.00;99.90
24207;DHT22;12351;52.284;9.160;2023-06-24T01:24:16;15.90;99.90
24207;DHT22;12351;52.284;9.160;2023-06-24T01:32:44;15.80;99.90
24207;DHT22;12351;52.284;9.160;2023-06-24T01:35:33;15.70;78.80
24207;DHT22;12351;52.284;9.160;2023-06-24T01:38:26;15.70;1.00
24207;DHT22;12351;52.284;9.160;2023-06-24T01:41:13;15.50;1.00
24207;DHT22;12351;52.284;9.160;2023-06-24T01:44:04;15.40;1.00
24207;DHT22;12351;52.284;9.160;2023-06-24T01:46:52;15.30;99.90
24207;DHT22;12351;52.284;9.160;2023-06-24T01:49:43;15.40;99.90
24207;DHT22;12351;52.284;9.160;2023-06-24T01:52:31;15.30;1.00
24207;DHT22;12351;52.284;9.160;2023-06-24T01:55:21;15.30;1.00
24207;DHT22;12351;52.284;9.160;2023-06-24T01:58:11;15.30;26.80
24207;DHT22;12351;52.284;9.160;2023-06-24T02:01:01;15.20;99.90
24207;DHT22;12351;52.284;9.160;2023-06-24T02:03:50;15.20;99.90
24207;DHT22;12351;52.284;9.160;2023-06-24T02:06:38;15.10;88.70
24207;DHT22;12351;52.284;9.160;2023-06-24T02:09:26;15.10;99.90
24207;DHT22;12351;52.284;9.160;2023-06-24T02:12:17;15.10;1.00
24207;DHT22;12351;52.284;9.160;2023-06-24T02:15:08;15.00;1.00
24207;DHT22;12351;52.284;9.160;2023-06-24T02:17:58;14.90;1.00
24207;DHT22;12351;52.284;9.160;2023-06-24T02:20:48;14.90;99.90
24207;DHT22;12351;52.284;9.160;2023-06-24T02:23:37;14.90;1.00
24207;DHT22;12351;52.284;9.160;2023-06-24T02:26:28;14.90;1.00
24207;DHT22;12351;52.284;9.160;2023-06-24T02:29:16;14.70;1.00
24207;DHT22;12351;52.284;9.160;2023-06-24T02:32:04;14.70;99.90
24207;DHT22;12351;52.284;9.160;2023-06-24T02:34:53;14.70;1.00
24207;DHT22;12351;52.284;9.160;2023-06-24T02:37:41;14.70;1.00
24207;DHT22;12351;52.284;9.160;2023-06-24T02:40:28;14.60;1.00
24207;DHT22;12351;52.284;9.160;2023-06-24T02:43:17;14.70;59.00
24207;DHT22;12351;52.284;9.160;2023-06-24T02:46:06;14.60;1.00
24207;DHT22;12351;52.284;9.160;2023-06-24T02:48:55;14.60;1.00
24207;DHT22;12351;52.284;9.160;2023-06-24T02:51:45;14.50;1.00
24207;DHT22;12351;52.284;9.160;2023-06-24T02:54:33;14.50;1.00
24207;DHT22;12351;52.284;9.160;2023-06-24T02:57:22;14.50;1.00
24207;DHT22;12351;52.284;9.160;2023-06-24T03:00:11;14.60;99.90
24207;DHT22;12351;52.284;9.160;2023-06-24T03:03:02;14.60;99.90
24207;DHT22;12351;52.284;9.160;2023-06-24T03:05:51;14.60;1.00
24207;DHT22;12351;52.284;9.160;2023-06-24T03:08:40;14.50;1.00
24207;DHT22;12351;52.284;9.160;2023-06-24T03:11:28;14.50;1.00
24207;DHT22;12351;52.284;9.160;2023-06-24T03:14:15;14.50;1.00
24207;DHT22;12351;52.284;9.160;2023-06-24T03:17:04;14.40;1.00
24207;DHT22;12351;52.284;9.160;2023-06-24T03:19:52;14.50;34.30
24207;DHT22;12351;52.284;9.160;2023-06-24T03:22:39;14.50;99.90
24207;DHT22;12351;52.284;9.160;2023-06-24T03:25:27;14.60;99.90
24207;DHT22;12351;52.284;9.160;2023-06-24T03:28:14;14.50;1.00
24207;DHT22;12351;52.284;9.160;2023-06-24T03:31:02;14.50;91.60
24207;DHT22;12351;52.284;9.160;2023-06-24T03:33:50;14.90;99.90
24207;DHT22;12351;52.284;9.160;2023-06-24T03:36:37;15.00;1.00
24207;DHT22;12351;52.284;9.160;2023-06-24T03:39:25;15.20;1.00
24207;DHT22;12351;52.284;9.160;2023-06-24T03:42:12;15.60;1.00
24207;DHT22;12351;52.284;9.160;2023-06-24T03:45:01;15.40;1.00
24207;DHT22;12351;52.284;9.160;2023-06-24T03:47:50;15.10;1.00
24207;DHT22;12351;52.284;9.160;2023-06-24T03:50:37;15.10;99.90
24207;DHT22;12351;52.284;9.160;2023-06-24T03:53:25;15.10;59.30
24207;DHT22;12351;52.284;9.160;2023-06-24T03:56:12;15.10;59.80
24207;DHT22;12351;52.284;9.160;2023-06-24T03:59:00;15.20;99.90
24207;DHT22;12351;52.284;9.160;2023-06-24T04:01:48;15.20;99.90
24207;DHT22;12351;52.284;9.160;2023-06-24T04:04:36;15.30;1.00
24207;DHT22;12351;52.284;9.160;2023-06-24T04:07:24;15.40;1.00
24207;DHT22;12351;52.284;9.160;2023-06-24T04:10:13;15.30;99.90
24207;DHT22;12351;52.284;9.160;2023-06-24T04:13:01;15.30;99.90
24207;DHT22;12351;52.284;9.160;2023-06-24T04:15:48;15.40;1.00
24207;DHT22;12351;52.284;9.160;2023-06-24T04:18:35;15.50;1.00
24207;DHT22;12351;52.284;9.160;2023-06-24T04:21:24;15.60;1.00
24207;DHT22;12351;52.284;9.160;2023-06-24T04:24:12;15.50;99.90
24207;DHT22;12351;52.284;9.160;2023-06-24T04:27:01;15.50;99.90
24207;DHT22;12351;52.284;9.160;2023-06-24T04:29:48;15.50;99.90
24207;DHT22;12351;52.284;9.160;2023-06-24T04:32:35;15.50;99.90
24207;DHT22;12351;52.284;9.160;2023-06-24T04:35:22;15.60;99.90
24207;DHT22;12351;52.284;9.160;2023-06-24T04:38:10;15.70;99.90
24207;DHT22;12351;52.284;9.160;2023-06-24T04:40:58;15.70;1.00
24207;DHT22;12351;52.284;9.160;2023-06-24T04:43:45;15.80;1.00
24207;DHT22;12351;52.284;9.160;2023-06-24T04:46:32;15.80;1.00
24207;DHT22;12351;52.284;9.160;2023-06-24T04:49:22;15.80;1.00
24207;DHT22;12351;52.284;9.160;2023-06-24T04:52:09;15.90;1.00
24207;DHT22;12351;52.284;9.160;2023-06-24T04:54:58;16.00;1.00
24207;DHT22;12351;52.284;9.160;2023-06-24T04:57:46;16.10;1.00
24207;DHT22;12351;52.284;9.160;2023-06-24T05:00:34;16.20;1.00
24207;DHT22;12351;52.284;9.160;2023-06-24T05:03:22;16.30;1.00
24207;DHT22;12351;52.284;9.160;2023-06-24T05:06:09;16.50;1.00
24207;DHT22;12351;52.284;9.160;2023-06-24T05:08:56;16.60;1.00
24207;DHT22;12351;52.284;9.160;2023-06-24T05:11:44;16.80;1.00
24207;DHT22;12351;52.284;9.160;2023-06-24T05:17:22;17.10;1.00
24207;DHT22;12351;52.284;9.160;2023-06-24T05:20:10;17.20;99.90
24207;DHT22;12351;52.284;9.160;2023-06-24T05:22:59;17.40;99.90
24207;DHT22;12351;52.284;9.160;2023-06-24T05:25:45;17.50;99.90
24207;DHT22;12351;52.284;9.160;2023-06-24T05:28:32;17.60;99.90
24207;DHT22;12351;52.284;9.160;2023-06-24T05:31:21;17.70;1.00
24207;DHT22;12351;52.284;9.160;2023-06-24T05:34:08;17.70;1.00
24207;DHT22;12351;52.284;9.160;2023-06-24T05:36:56;17.80;1.00
24207;DHT22;12351;52.284;9.160;2023-06-24T05:39:45;17.90;9.70
24207;DHT22;12351;52.284;9.160;2023-06-24T05:42:33;18.00;1.00
24207;DHT22;12351;52.284;9.160;2023-06-24T05:45:20;18.10;1.00
24207;DHT22;12351;52.284;9.160;2023-06-24T05:48:07;18.30;1.00
24207;DHT22;12351;52.284;9.160;2023-06-24T05:50:55;18.40;4.80
24207;DHT22;12351;52.284;9.160;2023-06-24T05:53:44;18.40;1.00
24207;DHT22;12351;52.284;9.160;2023-06-24T05:56:31;18.50;1.00
24207;DHT22;12351;52.284;9.160;2023-06-24T05:59:18;18.50;99.90
24207;DHT22;12351;52.284;9.160;2023-06-24T06:02:06;18.50;99.90
24207;DHT22;12351;52.284;9.160;2023-06-24T06:04:53;18.70;99.90
24207;DHT22;12351;52.284;9.160;2023-06-24T06:07:42;18.90;1.00
24207;DHT22;12351;52.284;9.160;2023-06-24T06:10:29;19.00;1.00
24207;DHT22;12351;52.284;9.160;2023-06-24T06:13:18;19.20;1.00
24207;DHT22;12351;52.284;9.160;2023-06-24T06:16:05;19.30;1.00
24207;DHT22;12351;52.284;9.160;2023-06-24T06:18:53;19.40;1.00
24207;DHT22;12351;52.284;9.160;2023-06-24T06:21:41;19.40;8.80
24207;DHT22;12351;52.284;9.160;2023-06-24T06:24:28;19.50;1.00
24207;DHT22;12351;52.284;9.160;2023-06-24T06:27:16;19.60;99.90
24207;DHT22;12351;52.284;9.160;2023-06-24T06:30:04;19.70;99.90
24207;DHT22;12351;52.284;9.160;2023-06-24T06:32:51;19.70;1.00
24207;DHT22;12351;52.284;9.160;2023-06-24T06:35:39;19.90;1.00
24207;DHT22;12351;52.284;9.160;2023-06-24T06:38:27;20.00;1.00
24207;DHT22;12351;52.284;9.160;2023-06-24T06:41:13;20.20;1.00
24207;DHT22;12351;52.284;9.160;2023-06-24T06:44:01;20.20;1.00
24207;DHT22;12351;52.284;9.160;2023-06-24T06:46:48;20.20;1.00
24207;DHT22;12351;52.284;9.160;2023-06-24T06:49:36;20.20;99.90
24207;DHT22;12351;52.284;9.160;2023-06-24T06:52:22;20.40;1.00
24207;DHT22;12351;52.284;9.160;2023-06-24T06:55:10;20.50;99.90
24207;DHT22;12351;52.284;9.160;2023-06-24T06:57:57;20.70;99.90
24207;DHT22;12351;52.284;9.160;2023-06-24T07:00:45;20.70;99.90
24207;DHT22;12351;52.284;9.160;2023-06-24T07:03:33;20.60;99.90
24207;DHT22;12351;52.284;9.160;2023-06-24T07:06:20;20.60;1.00
24207;DHT22;12351;52.284;9.160;2023-06-24T07:09:07;20.50;1.00
24207;DHT22;12351;52.284;9.160;2023-06-24T07:11:55;20.60;22.90
24207;DHT22;12351;52.284;9.160;2023-06-24T07:14:42;20.70;1.00
24207;DHT22;12351;52.284;9.160;2023-06-24T07:17:30;20.70;1.00
24207;DHT22;12351;52.284;9.160;2023-06-24T07:20:16;20.90;1.00
24207;DHT22;12351;52.284;9.160;2023-06-24T07:25:56;21.00;1.00
24207;DHT22;12351;52.284;9.160;2023-06-24T07:28:42;21.00;1.00
24207;DHT22;12351;52.284;9.160;2023-06-24T07:31:30;21.10;1.00
24207;DHT22;12351;52.284;9.160;2023-06-24T07:34:17;21.10;99.90
24207;DHT22;12351;52.284;9.160;2023-06-24T07:37:04;21.00;1.00
24207;DHT22;12351;52.284;9.160;2023-06-24T07:39:52;21.20;99.90
24207;DHT22;12351;52.284;9.160;2023-06-24T07:42:39;21.20;99.90
24207;DHT22;12351;52.284;9.160;2023-06-24T07:45:27;21.40;1.00
24207;DHT22;12351;52.284;9.160;2023-06-24T07:48:13;21.50;1.00
24207;DHT22;12351;52.284;9.160;2023-06-24T07:51:01;21.40;99.90
24207;DHT22;12351;52.284;9.160;2023-06-24T07:53:49;21.50;99.90
24207;DHT22;12351;52.284;9.160;2023-06-24T07:56:36;21.50;99.90
24207;DHT22;12351;52.284;9.160;2023-06-24T07:59:23;21.70;99.90
24207;DHT22;12351;52.284;9.160;2023-06-24T08:02:10;21.60;99.90
24207;DHT22;12351;52.284;9.160;2023-06-24T08:04:58;21.50;99.90
24207;DHT22;12351;52.284;9.160;2023-06-24T08:07:45;21.50;99.90
24207;DHT22;12351;52.284;9.160;2023-06-24T08:10:32;21.70;99.90
24207;DHT22;12351;52.284;9.160;2023-06-24T08:13:20;21.90;99.90
24207;DHT22;12351;52.284;9.160;2023-06-24T08:16:07;22.20;99.90
24207;DHT22;12351;52.284;9.160;2023-06-24T08:18:54;22.20;99.90
24207;DHT22;12351;52.284;9.160;2023-06-24T08:21:42;22.40;1.00
24207;DHT22;12351;52.284;9.160;2023-06-24T08:24:30;22.50;1.00
24207;DHT22;12351;52.284;9.160;2023-06-24T08:27:19;22.60;1.00
24207;DHT22;12351;52.284;9.160;2023-06-24T08:30:06;22.50;1.00
24207;DHT22;12351;52.284;9.160;2023-06-24T08:32:53;22.50;1.00
24207;DHT22;12351;52.284;9.160;2023-06-24T08:35:41;22.60;1.00
24207;DHT22;12351;52.284;9.160;2023-06-24T08:38:27;22.70;1.00
24207;DHT22;12351;52.284;9.160;2023-06-24T08:41:15;22.50;1.00
24207;DHT22;12351;52.284;9.160;2023-06-24T08:44:02;22.50;1.00
24207;DHT22;12351;52.284;9.160;2023-06-24T08:46:50;22.70;99.90
24207;DHT22;12351;52.284;9.160;2023-06-24T08:49:43;22.90;1.00
24207;DHT22;12351;52.284;9.160;2023-06-24T08:52:29;22.90;99.90
24207;DHT22;12351;52.284;9.160;2023-06-24T08:55:17;23.10;99.90
24207;DHT22;12351;52.284;9.160;2023-06-24T08:58:07;23.20;99.90
24207;DHT22;12351;52.284;9.160;2023-06-24T09:00:54;23.20;40.20
24207;DHT22;12351;52.284;9.160;2023-06-24T09:03:42;23.20;99.90
24207;DHT22;12351;52.284;9.160;2023-06-24T09:06:31;23.40;99.90
24207;DHT22;12351;52.284;9.160;2023-06-24T09:09:20;23.40;1.00
24207;DHT22;12351;52.284;9.160;2023-06-24T09:12:10;23.40;27.20
24207;DHT22;12351;52.284;9.160;2023-06-24T09:14:56;23.60;71.40
24207;DHT22;12351;52.284;9.160;2023-06-24T09:17:45;23.70;46.80
24207;DHT22;12351;52.284;9.160;2023-06-24T09:20:32;23.80;59.60
24207;DHT22;12351;52.284;9.160;2023-06-24T09:23:25;23.90;1.00
24207;DHT22;12351;52.284;9.160;2023-06-24T09:26:12;24.10;1.00
24207;DHT22;12351;52.284;9.160;2023-06-24T09:29:00;24.10;1.00
24207;DHT22;12351;52.284;9.160;2023-06-24T09:31:49;24.10;8.60
24207;DHT22;12351;52.284;9.160;2023-06-24T09:34:37;23.90;27.00
24207;DHT22;12351;52.284;9.160;2023-06-24T09:37:25;24.00;72.70
24207;DHT22;12351;52.284;9.160;2023-06-24T09:40:13;23.90;1.00
24207;DHT22;12351;52.284;9.160;2023-06-24T09:43:01;24.00;59.20
24207;DHT22;12351;52.284;9.160;2023-06-24T09:45:50;23.90;1.00
24207;DHT22;12351;52.284;9.160;2023-06-24T09:48:38;24.10;1.00
24207;DHT22;12351;52.284;9.160;2023-06-24T09:51:25;24.20;1.00
24207;DHT22;12351;52.284;9.160;2023-06-24T09:54:14;24.20;1.00
24207;DHT22;12351;52.284;9.160;2023-06-24T09:57:04;24.30;1.00
24207;DHT22;12351;52.284;9.160;2023-06-24T09:59:53;24.30;1.00
24207;DHT22;12351;52.284;9.160;2023-06-24T10:02:40;24.30;1.00
24207;DHT22;12351;52.284;9.160;2023-06-24T10:05:27;24.60;1.00
24207;DHT22;12351;52.284;9.160;2023-06-24T10:08:15;24.80;1.00
24207;DHT22;12351;52.284;9.160;2023-06-24T10:11:03;24.90;1.00
24207;DHT22;12351;52.284;9.160;2023-06-24T10:13:51;24.90;1.00
24207;DHT22;12351;52.284;9.160;2023-06-24T10:16:38;24.90;1.00
24207;DHT22;12351;52.284;9.160;2023-06-24T10:19:26;24.80;1.00
24207;DHT22;12351;52.284;9.160;2023-06-24T10:22:14;24.70;1.00
24207;DHT22;12351;52.284;9.160;2023-06-24T10:25:05;24.90;1.00
24207;DHT22;12351;52.284;9.160;2023-06-24T10:27:54;24.90;1.00
24207;DHT22;12351;52.284;9.160;2023-06-24T10:30:53;25.00;1.00
24207;DHT22;12351;52.284;9.160;2023-06-24T10:33:32;25.10;1.00
24207;DHT22;12351;52.284;9.160;2023-06-24T10:39:34;25.30;1.00
24207;DHT22;12351;52.284;9.160;2023-06-24T10:44:51;25.50;1.00
24207;DHT22;12351;52.284;9.160;2023-06-24T10:47:40;25.60;1.00
24207;DHT22;12351;52.284;9.160;2023-06-24T10:50:27;25.50;1.00
24207;DHT22;12351;52.284;9.160;2023-06-24T10:53:16;25.50;1.00
24207;DHT22;12351;52.284;9.160;2023-06-24T10:56:04;25.70;1.00
24207;DHT22;12351;52.284;9.160;2023-06-24T11:04:31;25.80;1.00
24207;DHT22;12351;52.284;9.160;2023-06-24T11:07:21;26.00;1.00
24207;DHT22;12351;52.284;9.160;2023-06-24T11:10:10;26.10;1.00
24207;DHT22;12351;52.284;9.160;2023-06-24T11:13:04;26.10;1.00
24207;DHT22;12351;52.284;9.160;2023-06-24T11:15:46;26.30;1.00
24207;DHT22;12351;52.284;9.160;2023-06-24T11:24:13;26.50;1.00
24207;DHT22;12351;52.284;9.160;2023-06-24T11:27:01;26.50;1.00
24207;DHT22;12351;52.284;9.160;2023-06-24T11:29:48;26.60;1.00
24207;DHT22;12351;52.284;9.160;2023-06-24T11:35:16;26.80;1.00
24207;DHT22;12351;52.284;9.160;2023-06-24T11:38:03;26.70;1.00
24207;DHT22;12351;52.284;9.160;2023-06-24T11:40:51;26.90;1.00
24207;DHT22;12351;52.284;9.160;2023-06-24T11:43:43;27.10;1.00
24207;DHT22;12351;52.284;9.160;2023-06-24T11:46:27;27.10;1.00
24207;DHT22;12351;52.284;9.160;2023-06-24T11:49:16;26.90;1.00
24207;DHT22;12351;52.284;9.160;2023-06-24T11:52:04;26.90;1.00
24207;DHT22;12351;52.284;9.160;2023-06-24T11:54:52;27.20;1.00
24207;DHT22;12351;52.284;9.160;2023-06-24T12:00:32;27.50;1.00
24207;DHT22;12351;52.284;9.160;2023-06-24T12:03:18;27.40;1.00
24207;DHT22;12351;52.284;9.160;2023-06-24T12:06:07;27.50;1.00
24207;DHT22;12351;52.284;9.160;2023-06-24T12:08:54;27.80;1.00
24207;DHT22;12351;52.284;9.160;2023-06-24T12:11:42;27.90;1.00
24207;DHT22;12351;52.284;9.160;2023-06-24T12:14:29;27.90;1.00
24207;DHT22;12351;52.284;9.160;2023-06-24T12:17:16;27.80;1.00
24207;DHT22;12351;52.284;9.160;2023-06-24T12:20:04;27.60;1.00
24207;DHT22;12351;52.284;9.160;2023-06-24T12:22:51;27.80;1.00
24207;DHT22;12351;52.284;9.160;2023-06-24T12:25:39;27.90;1.00
24207;DHT22;12351;52.284;9.160;2023-06-24T12:28:26;28.00;1.00
24207;DHT22;12351;52.284;9.160;2023-06-24T12:31:14;28.00;1.00
24207;DHT22;12351;52.284;9.160;2023-06-24T12:34:01;28.00;1.00
24207;DHT22;12351;52.284;9.160;2023-06-24T12:36:48;28.10;1.00
24207;DHT22;12351;52.284;9.160;2023-06-24T12:39:36;28.10;1.00
24207;DHT22;12351;52.284;9.160;2023-06-24T12:42:22;27.90;1.00
24207;DHT22;12351;52.284;9.160;2023-06-24T12:45:09;27.90;1.00
24207;DHT22;12351;52.284;9.160;2023-06-24T12:47:56;28.00;1.00
24207;DHT22;12351;52.284;9.160;2023-06-24T12:50:44;28.00;1.00
24207;DHT22;12351;52.284;9.160;2023-06-24T12:53:34;28.30;1.00
24207;DHT22;12351;52.284;9.160;2023-06-24T12:56:20;28.40;1.00
24207;DHT22;12351;52.284;9.160;2023-06-24T12:59:08;28.60;1.00
24207;DHT22;12351;52.284;9.160;2023-06-24T13:01:56;28.40;1.00
24207;DHT22;12351;52.284;9.160;2023-06-24T13:04:43;28.50;1.00
24207;DHT22;12351;52.284;9.160;2023-06-24T13:07:31;28.40;1.00
24207;DHT22;12351;52.284;9.160;2023-06-24T13:10:18;28.20;1.00
24207;DHT22;12351;52.284;9.160;2023-06-24T13:13:06;28.40;1.00
24207;DHT22;12351;52.284;9.160;2023-06-24T13:15:53;28.60;1.00
24207;DHT22;12351;52.284;9.160;2023-06-24T13:18:40;28.70;1.00
24207;DHT22;12351;52.284;9.160;2023-06-24T13:21:28;28.70;1.00
24207;DHT22;12351;52.284;9.160;2023-06-24T13:24:16;28.80;1.00
24207;DHT22;12351;52.284;9.160;2023-06-24T13:27:03;28.80;1.00
24207;DHT22;12351;52.284;9.160;2023-06-24T13:29:50;28.80;1.00
24207;DHT22;12351;52.284;9.160;2023-06-24T13:32:37;29.00;1.00
24207;DHT22;12351;52.284;9.160;2023-06-24T13:35:24;29.10;1.00
24207;DHT22;12351;52.284;9.160;2023-06-24T13:38:11;29.10;1.00
24207;DHT22;12351;52.284;9.160;2023-06-24T13:41:00;29.10;1.00
24207;DHT22;12351;52.284;9.160;2023-06-24T13:43:49;29.20;1.00
24207;DHT22;12351;52.284;9.160;2023-06-24T13:46:36;29.40;1.00
24207;DHT22;12351;52.284;9.160;2023-06-24T13:49:24;29.40;1.00
24207;DHT22;12351;52.284;9.160;2023-06-24T13:52:11;29.50;1.00
24207;DHT22;12351;52.284;9.160;2023-06-24T13:54:59;29.50;1.00
24207;DHT22;12351;52.284;9.160;2023-06-24T13:57:47;29.60;1.00
24207;DHT22;12351;52.284;9.160;2023-06-24T14:00:35;29.60;1.00
24207;DHT22;12351;52.284;9.160;2023-06-24T14:03:22;29.80;1.00
24207;DHT22;12351;52.284;9.160;2023-06-24T14:06:09;30.00;1.00
24207;DHT22;12351;52.284;9.160;2023-06-24T14:08:56;29.90;1.00
24207;DHT22;12351;52.284;9.160;2023-06-24T14:11:44;30.00;1.00
24207;DHT22;12351;52.284;9.160;2023-06-24T14:14:31;30.00;1.00
24207;DHT22;12351;52.284;9.160;2023-06-24T14:17:18;29.80;1.00
24207;DHT22;12351;52.284;9.160;2023-06-24T14:20:08;29.80;1.00
24207;DHT22;12351;52.284;9.160;2023-06-24T14:22:56;29.50;1.00
24207;DHT22;12351;52.284;9.160;2023-06-24T14:25:43;29.60;1.00
24207;DHT22;12351;52.284;9.160;2023-06-24T14:28:30;29.50;1.00
24207;DHT22;12351;52.284;9.160;2023-06-24T14:31:18;29.70;1.00
24207;DHT22;12351;52.284;9.160;2023-06-24T14:34:04;29.80;1.00
24207;DHT22;12351;52.284;9.160;2023-06-24T14:36:51;29.40;1.00
24207;DHT22;12351;52.284;9.160;2023-06-24T14:39:40;29.50;1.00
24207;DHT22;12351;52.284;9.160;2023-06-24T14:42:27;29.50;1.00
24207;DHT22;12351;52.284;9.160;2023-06-24T14:45:15;29.50;1.00
24207;DHT22;12351;52.284;9.160;2023-06-24T14:48:03;29.40;1.00
24207;DHT22;12351;52.284;9.160;2023-06-24T14:50:49;29.10;1.00
24207;DHT22;12351;52.284;9.160;2023-06-24T14:53:37;29.40;1.00
24207;DHT22;12351;52.284;9.160;2023-06-24T14:56:24;29.50;1.00
24207;DHT22;12351;52.284;9.160;2023-06-24T14:59:12;29.40;1.00
24207;DHT22;12351;52.284;9.160;2023-06-24T15:02:00;29.40;1.00
24207;DHT22;12351;52.284;9.160;2023-06-24T15:04:46;29.40;1.00
24207;DHT22;12351;52.284;9.160;2023-06-24T15:07:35;29.20;1.00
24207;DHT22;12351;52.284;9.160;2023-06-24T15:10:23;29.30;1.00
24207;DHT22;12351;52.284;9.160;2023-06-24T15:13:11;29.50;1.00
24207;DHT22;12351;52.284;9.160;2023-06-24T15:15:58;29.60;1.00
24207;DHT22;12351;52.284;9.160;2023-06-24T15:18:46;29.70;1.00
24207;DHT22;12351;52.284;9.160;2023-06-24T15:21:34;29.70;1.00
24207;DHT22;12351;52.284;9.160;2023-06-24T15:24:22;29.70;1.00
24207;DHT22;12351;52.284;9.160;2023-06-24T15:27:10;29.20;1.00
24207;DHT22;12351;52.284;9.160;2023-06-24T15:29:57;29.30;1.00
24207;DHT22;12351;52.284;9.160;2023-06-24T15:32:45;29.20;1.00
24207;DHT22;12351;52.284;9.160;2023-06-24T15:35:32;29.40;1.00
24207;DHT22;12351;52.284;9.160;2023-06-24T15:38:20;29.50;1.00
24207;DHT22;12351;52.284;9.160;2023-06-24T15:41:07;29.40;1.00
24207;DHT22;12351;52.284;9.160;2023-06-24T15:43:56;29.60;1.00
24207;DHT22;12351;52.284;9.160;2023-06-24T15:46:43;29.50;1.00
24207;DHT22;12351;52.284;9.160;2023-06-24T15:49:31;29.60;1.00
24207;DHT22;12351;52.284;9.160;2023-06-24T15:52:17;29.70;1.00
24207;DHT22;12351;52.284;9.160;2023-06-24T15:55:06;29.70;1.00
24207;DHT22;12351;52.284;9.160;2023-06-24T15:57:54;29.70;1.00
24207;DHT22;12351;52.284;9.160;2023-06-24T16:00:42;29.90;1.00
24207;DHT22;12351;52.284;9.160;2023-06-24T16:03:30;29.90;1.00
24207;DHT22;12351;52.284;9.160;2023-06-24T16:06:17;30.00;1.00
24207;DHT22;12351;52.284;9.160;2023-06-24T16:09:06;29.90;1.00
24207;DHT22;12351;52.284;9.160;2023-06-24T16:11:53;29.90;1.00
24207;DHT22;12351;52.284;9.160;2023-06-24T16:14:40;30.00;1.00
24207;DHT22;12351;52.284;9.160;2023-06-24T16:17:27;30.10;1.00
24207;DHT22;12351;52.284;9.160;2023-06-24T16:20:15;30.10;1.00
24207;DHT22;12351;52.284;9.160;2023-06-24T16:23:03;30.10;1.00
24207;DHT22;12351;52.284;9.160;2023-06-24T16:25:51;30.10;1.00
24207;DHT22;12351;52.284;9.160;2023-06-24T16:28:37;30.20;1.00
24207;DHT22;12351;52.284;9.160;2023-06-24T16:31:25;30.10;1.00
24207;DHT22;12351;52.284;9.160;2023-06-24T16:34:12;30.10;1.00
24207;DHT22;12351;52.284;9.160;2023-06-24T16:37:00;30.20;1.00
24207;DHT22;12351;52.284;9.160;2023-06-24T16:39:48;30.20;1.00
24207;DHT22;12351;52.284;9.160;2023-06-24T16:42:34;30.30;1.00
24207;DHT22;12351;52.284;9.160;2023-06-24T16:45:22;30.20;1.00
24207;DHT22;12351;52.284;9.160;2023-06-24T16:48:09;30.30;1.00
24207;DHT22;12351;52.284;9.160;2023-06-24T16:50:56;30.30;1.00
24207;DHT22;12351;52.284;9.160;2023-06-24T16:53:44;30.10;1.00
24207;DHT22;12351;52.284;9.160;2023-06-24T16:56:30;30.10;1.00
24207;DHT22;12351;52.284;9.160;2023-06-24T16:59:18;30.10;1.00
24207;DHT22;12351;52.284;9.160;2023-06-24T17:02:06;30.10;1.00
24207;DHT22;12351;52.284;9.160;2023-06-24T17:04:53;30.10;1.00
24207;DHT22;12351;52.284;9.160;2023-06-24T17:07:40;30.10;1.00
24207;DHT22;12351;52.284;9.160;2023-06-24T17:10:27;30.10;1.00
24207;DHT22;12351;52.284;9.160;2023-06-24T17:13:15;30.10;1.00
24207;DHT22;12351;52.284;9.160;2023-06-24T17:16:03;30.00;1.00
24207;DHT22;12351;52.284;9.160;2023-06-24T17:18:49;29.90;1.00
24207;DHT22;12351;52.284;9.160;2023-06-24T17:21:37;29.90;1.00
24207;DHT22;12351;52.284;9.160;2023-06-24T17:24:24;29.90;1.00
24207;DHT22;12351;52.284;9.160;2023-06-24T17:27:12;29.90;1.00
24207;DHT22;12351;52.284;9.160;2023-06-24T17:29:59;29.90;1.00
24207;DHT22;12351;52.284;9.160;2023-06-24T17:32:46;29.90;1.00
24207;DHT22;12351;52.284;9.160;2023-06-24T17:35:34;29.90;1.00
24207;DHT22;12351;52.284;9.160;2023-06-24T17:38:20;29.90;1.00
24207;DHT22;12351;52.284;9.160;2023-06-24T17:41:08;29.80;1.00
24207;DHT22;12351;52.284;9.160;2023-06-24T17:43:56;29.70;1.00
24207;DHT22;12351;52.284;9.160;2023-06-24T17:46:42;29.70;1.00
24207;DHT22;12351;52.284;9.160;2023-06-24T17:49:29;29.70;1.00
24207;DHT22;12351;52.284;9.160;2023-06-24T17:52:16;29.70;1.00
24207;DHT22;12351;52.284;9.160;2023-06-24T17:55:04;29.60;1.00
24207;DHT22;12351;52.284;9.160;2023-06-24T17:57:52;29.50;1.00
24207;DHT22;12351;52.284;9.160;2023-06-24T18:00:38;29.50;1.00
24207;DHT22;12351;52.284;9.160;2023-06-24T18:03:26;29.50;1.00
24207;DHT22;12351;52.284;9.160;2023-06-24T18:06:13;29.40;1.00
24207;DHT22;12351;52.284;9.160;2023-06-24T18:09:00;29.30;1.00
24207;DHT22;12351;52.284;9.160;2023-06-24T18:11:48;29.30;1.00
24207;DHT22;12351;52.284;9.160;2023-06-24T18:14:34;29.20;1.00
24207;DHT22;12351;52.284;9.160;2023-06-24T18:17:22;29.10;1.00
24207;DHT22;12351;52.284;9.160;2023-06-24T18:20:09;29.10;1.00
24207;DHT22;12351;52.284;9.160;2023-06-24T18:22:57;29.00;1.00
24207;DHT22;12351;52.284;9.160;2023-06-24T18:25:46;28.90;1.00
24207;DHT22;12351;52.284;9.160;2023-06-24T18:28:32;28.80;1.00